sensor_id;sensor_type;location;lat;lon;timestamp;P1;durP1;ratioP1;P2;durP2;ratioP2
31596;SDS011;18201;50.978;7.034;2022-12-07T00:00:27;96.13;;;53.88;;
31596;SDS011;18201;50.978;7.034;2022-12-07T00:01:03;91.00;;;51.10;;
31596;SDS011;18201;50.978;7.034;2022-12-07T00:01:36;103.50;;;53.97;;
31596;SDS011;18201;50.978;7.034;2022-12-07T00:02:08;94.60;;;53.80;;
31596;SDS011;18201;50.978;7.034;2022-12-07T00:02:40;95.85;;;54.35;;
31596;SDS011;18201;50.978;7.034;2022-12-07T00:03:11;109.75;;;55.92;;
31596;SDS011;18201;50.978;7.034;2022-12-07T00:03:42;110.95;;;56.35;;
31596;SDS011;18201;50.978;7.034;2022-12-07T00:04:16;101.82;;;54.13;;
31596;SDS011;18201;50.978;7.034;2022-12-07T00:04:48;109.80;;;56.85;;
31596;SDS011;18201;50.978;7.034;2022-12-07T00:05:20;107.40;;;56.33;;
31596;SDS011;18201;50.978;7.034;2022-12-07T00:05:51;98.25;;;53.95;;
31596;SDS011;18201;50.978;7.034;2022-12-07T00:06:21;98.60;;;55.17;;
31596;SDS011;18201;50.978;7.034;2022-12-07T00:06:53;104.43;;;55.60;;
31596;SDS011;18201;50.978;7.034;2022-12-07T00:07:24;103.93;;;55.08;;
31596;SDS011;18201;50.978;7.034;2022-12-07T00:07:55;97.30;;;53.40;;
31596;SDS011;18201;50.978;7.034;2022-12-07T00:08:27;103.32;;;54.97;;
31596;SDS011;18201;50.978;7.034;2022-12-07T00:08:59;100.78;;;54.65;;
31596;SDS011;18201;50.978;7.034;2022-12-07T00:09:31;97.07;;;53.80;;
31596;SDS011;18201;50.978;7.034;2022-12-07T00:10:02;102.00;;;55.97;;
31596;SDS011;18201;50.978;7.034;2022-12-07T00:10:33;92.93;;;53.05;;
31596;SDS011;18201;50.978;7.034;2022-12-07T00:11:07;97.07;;;56.95;;
31596;SDS011;18201;50.978;7.034;2022-12-07T00:11:39;99.47;;;55.75;;
31596;SDS011;18201;50.978;7.034;2022-12-07T00:12:10;104.25;;;56.50;;
31596;SDS011;18201;50.978;7.034;2022-12-07T00:12:42;109.43;;;57.42;;
31596;SDS011;18201;50.978;7.034;2022-12-07T00:13:13;106.85;;;57.53;;
31596;SDS011;18201;50.978;7.034;2022-12-07T00:13:44;102.47;;;55.15;;
31596;SDS011;18201;50.978;7.034;2022-12-07T00:14:16;91.75;;;51.85;;
31596;SDS011;18201;50.978;7.034;2022-12-07T00:14:48;103.78;;;57.35;;
31596;SDS011;18201;50.978;7.034;2022-12-07T00:15:19;93.25;;;55.08;;
31596;SDS011;18201;50.978;7.034;2022-12-07T00:15:49;97.57;;;54.90;;
31596;SDS011;18201;50.978;7.034;2022-12-07T00:16:22;100.43;;;56.95;;
31596;SDS011;18201;50.978;7.034;2022-12-07T00:16:54;97.32;;;53.15;;
31596;SDS011;18201;50.978;7.034;2022-12-07T00:17:26;98.10;;;54.70;;
31596;SDS011;18201;50.978;7.034;2022-12-07T00:17:57;97.32;;;54.15;;
31596;SDS011;18201;50.978;7.034;2022-12-07T00:18:28;103.35;;;56.67;;
31596;SDS011;18201;50.978;7.034;2022-12-07T00:18:59;94.50;;;54.05;;
31596;SDS011;18201;50.978;7.034;2022-12-07T00:19:32;97.43;;;53.17;;
31596;SDS011;18201;50.978;7.034;2022-12-07T00:20:03;92.90;;;53.97;;
31596;SDS011;18201;50.978;7.034;2022-12-07T00:20:35;94.80;;;53.28;;
31596;SDS011;18201;50.978;7.034;2022-12-07T00:21:09;98.40;;;54.80;;
31596;SDS011;18201;50.978;7.034;2022-12-07T00:21:41;90.45;;;52.55;;
31596;SDS011;18201;50.978;7.034;2022-12-07T00:22:12;89.10;;;53.42;;
31596;SDS011;18201;50.978;7.034;2022-12-07T00:22:44;90.03;;;51.05;;
31596;SDS011;18201;50.978;7.034;2022-12-07T00:23:15;89.13;;;51.53;;
31596;SDS011;18201;50.978;7.034;2022-12-07T00:23:46;92.18;;;52.17;;
31596;SDS011;18201;50.978;7.034;2022-12-07T00:24:21;88.15;;;51.03;;
31596;SDS011;18201;50.978;7.034;2022-12-07T00:24:52;96.10;;;53.38;;
31596;SDS011;18201;50.978;7.034;2022-12-07T00:25:23;101.82;;;54.05;;
31596;SDS011;18201;50.978;7.034;2022-12-07T00:25:53;90.68;;;52.70;;
31596;SDS011;18201;50.978;7.034;2022-12-07T00:26:26;96.00;;;53.85;;
31596;SDS011;18201;50.978;7.034;2022-12-07T00:26:58;94.00;;;53.13;;
31596;SDS011;18201;50.978;7.034;2022-12-07T00:27:30;94.53;;;51.80;;
31596;SDS011;18201;50.978;7.034;2022-12-07T00:28:01;97.22;;;54.17;;
31596;SDS011;18201;50.978;7.034;2022-12-07T00:28:32;90.32;;;52.88;;
31596;SDS011;18201;50.978;7.034;2022-12-07T00:29:04;95.45;;;53.45;;
31596;SDS011;18201;50.978;7.034;2022-12-07T00:29:37;93.88;;;51.33;;
31596;SDS011;18201;50.978;7.034;2022-12-07T00:30:08;84.25;;;49.42;;
31596;SDS011;18201;50.978;7.034;2022-12-07T00:30:39;91.72;;;52.22;;
31596;SDS011;18201;50.978;7.034;2022-12-07T00:31:12;87.72;;;51.67;;
31596;SDS011;18201;50.978;7.034;2022-12-07T00:31:44;91.97;;;51.15;;
31596;SDS011;18201;50.978;7.034;2022-12-07T00:32:16;92.72;;;52.03;;
31596;SDS011;18201;50.978;7.034;2022-12-07T00:32:47;87.20;;;50.63;;
31596;SDS011;18201;50.978;7.034;2022-12-07T00:33:18;91.70;;;52.58;;
31596;SDS011;18201;50.978;7.034;2022-12-07T00:33:49;88.28;;;50.65;;
31596;SDS011;18201;50.978;7.034;2022-12-07T00:34:20;85.35;;;50.22;;
31596;SDS011;18201;50.978;7.034;2022-12-07T00:34:52;91.95;;;54.58;;
31596;SDS011;18201;50.978;7.034;2022-12-07T00:35:23;85.40;;;51.45;;
31596;SDS011;18201;50.978;7.034;2022-12-07T00:35:55;83.63;;;50.20;;
31596;SDS011;18201;50.978;7.034;2022-12-07T00:36:26;89.32;;;52.03;;
31596;SDS011;18201;50.978;7.034;2022-12-07T00:36:58;87.63;;;49.67;;
31596;SDS011;18201;50.978;7.034;2022-12-07T00:37:29;83.63;;;50.67;;
31596;SDS011;18201;50.978;7.034;2022-12-07T00:37:59;88.55;;;50.17;;
31596;SDS011;18201;50.978;7.034;2022-12-07T00:38:32;85.85;;;51.00;;
31596;SDS011;18201;50.978;7.034;2022-12-07T00:39:04;91.47;;;51.22;;
31596;SDS011;18201;50.978;7.034;2022-12-07T00:39:37;92.68;;;51.75;;
31596;SDS011;18201;50.978;7.034;2022-12-07T00:40:08;86.88;;;51.22;;
31596;SDS011;18201;50.978;7.034;2022-12-07T00:40:40;86.72;;;50.08;;
31596;SDS011;18201;50.978;7.034;2022-12-07T00:41:12;95.32;;;52.72;;
31596;SDS011;18201;50.978;7.034;2022-12-07T00:41:44;95.28;;;52.10;;
31596;SDS011;18201;50.978;7.034;2022-12-07T00:42:16;76.70;;;46.92;;
31596;SDS011;18201;50.978;7.034;2022-12-07T00:42:47;88.55;;;51.55;;
31596;SDS011;18201;50.978;7.034;2022-12-07T00:43:18;90.00;;;52.13;;
31596;SDS011;18201;50.978;7.034;2022-12-07T00:43:52;90.47;;;50.05;;
31596;SDS011;18201;50.978;7.034;2022-12-07T00:44:27;85.70;;;51.42;;
31596;SDS011;18201;50.978;7.034;2022-12-07T00:45:02;91.95;;;50.97;;
31596;SDS011;18201;50.978;7.034;2022-12-07T00:45:34;80.05;;;46.83;;
31596;SDS011;18201;50.978;7.034;2022-12-07T00:46:04;78.63;;;48.45;;
31596;SDS011;18201;50.978;7.034;2022-12-07T00:46:36;83.07;;;47.70;;
31596;SDS011;18201;50.978;7.034;2022-12-07T00:47:07;79.65;;;49.85;;
31596;SDS011;18201;50.978;7.034;2022-12-07T00:47:38;84.88;;;48.63;;
31596;SDS011;18201;50.978;7.034;2022-12-07T00:48:10;89.38;;;51.47;;
31596;SDS011;18201;50.978;7.034;2022-12-07T00:48:41;85.40;;;46.83;;
31596;SDS011;18201;50.978;7.034;2022-12-07T00:49:12;83.32;;;48.78;;
31596;SDS011;18201;50.978;7.034;2022-12-07T00:49:44;84.28;;;52.10;;
31596;SDS011;18201;50.978;7.034;2022-12-07T00:50:15;87.40;;;50.83;;
31596;SDS011;18201;50.978;7.034;2022-12-07T00:50:46;86.13;;;47.40;;
31596;SDS011;18201;50.978;7.034;2022-12-07T00:51:19;87.43;;;50.85;;
31596;SDS011;18201;50.978;7.034;2022-12-07T00:51:50;87.38;;;49.63;;
31596;SDS011;18201;50.978;7.034;2022-12-07T00:52:22;79.70;;;47.70;;
31596;SDS011;18201;50.978;7.034;2022-12-07T00:52:53;86.18;;;50.65;;
31596;SDS011;18201;50.978;7.034;2022-12-07T00:53:24;87.38;;;51.60;;
31596;SDS011;18201;50.978;7.034;2022-12-07T00:53:56;88.40;;;51.53;;
31596;SDS011;18201;50.978;7.034;2022-12-07T00:54:27;87.00;;;49.83;;
31596;SDS011;18201;50.978;7.034;2022-12-07T00:54:59;80.90;;;48.38;;
31596;SDS011;18201;50.978;7.034;2022-12-07T00:55:32;84.55;;;47.65;;
31596;SDS011;18201;50.978;7.034;2022-12-07T00:56:04;90.60;;;51.15;;
31596;SDS011;18201;50.978;7.034;2022-12-07T00:56:36;96.25;;;51.83;;
31596;SDS011;18201;50.978;7.034;2022-12-07T00:57:07;104.25;;;54.60;;
31596;SDS011;18201;50.978;7.034;2022-12-07T00:57:38;90.68;;;51.95;;
31596;SDS011;18201;50.978;7.034;2022-12-07T00:58:09;85.25;;;50.50;;
31596;SDS011;18201;50.978;7.034;2022-12-07T00:58:40;87.60;;;52.33;;
31596;SDS011;18201;50.978;7.034;2022-12-07T00:59:13;90.15;;;52.88;;
31596;SDS011;18201;50.978;7.034;2022-12-07T00:59:44;90.93;;;52.15;;
31596;SDS011;18201;50.978;7.034;2022-12-07T01:00:15;93.30;;;52.22;;
31596;SDS011;18201;50.978;7.034;2022-12-07T01:00:47;99.78;;;51.33;;
31596;SDS011;18201;50.978;7.034;2022-12-07T01:01:18;96.90;;;52.88;;
31596;SDS011;18201;50.978;7.034;2022-12-07T01:01:49;88.15;;;51.90;;
31596;SDS011;18201;50.978;7.034;2022-12-07T01:02:21;86.80;;;50.15;;
31596;SDS011;18201;50.978;7.034;2022-12-07T01:02:52;88.97;;;49.83;;
31596;SDS011;18201;50.978;7.034;2022-12-07T01:03:23;90.53;;;50.45;;
31596;SDS011;18201;50.978;7.034;2022-12-07T01:03:56;100.45;;;51.50;;
31596;SDS011;18201;50.978;7.034;2022-12-07T01:04:26;102.10;;;54.20;;
31596;SDS011;18201;50.978;7.034;2022-12-07T01:04:57;93.85;;;52.63;;
31596;SDS011;18201;50.978;7.034;2022-12-07T01:05:29;100.13;;;52.97;;
31596;SDS011;18201;50.978;7.034;2022-12-07T01:06:00;90.65;;;51.65;;
31596;SDS011;18201;50.978;7.034;2022-12-07T01:06:31;87.50;;;50.85;;
31596;SDS011;18201;50.978;7.034;2022-12-07T01:07:03;86.88;;;51.25;;
31596;SDS011;18201;50.978;7.034;2022-12-07T01:07:34;83.15;;;49.35;;
31596;SDS011;18201;50.978;7.034;2022-12-07T01:08:05;82.10;;;48.83;;
31596;SDS011;18201;50.978;7.034;2022-12-07T01:08:38;95.93;;;50.47;;
31596;SDS011;18201;50.978;7.034;2022-12-07T01:09:08;86.53;;;49.35;;
31596;SDS011;18201;50.978;7.034;2022-12-07T01:09:40;89.57;;;50.40;;
31596;SDS011;18201;50.978;7.034;2022-12-07T01:10:13;93.13;;;52.38;;
31596;SDS011;18201;50.978;7.034;2022-12-07T01:10:44;86.22;;;49.63;;
31596;SDS011;18201;50.978;7.034;2022-12-07T01:11:18;85.57;;;50.17;;
31596;SDS011;18201;50.978;7.034;2022-12-07T01:11:50;96.78;;;53.80;;
31596;SDS011;18201;50.978;7.034;2022-12-07T01:12:22;82.97;;;48.85;;
31596;SDS011;18201;50.978;7.034;2022-12-07T01:12:52;92.53;;;51.03;;
31596;SDS011;18201;50.978;7.034;2022-12-07T01:13:23;92.78;;;52.75;;
31596;SDS011;18201;50.978;7.034;2022-12-07T01:13:55;99.75;;;53.25;;
31596;SDS011;18201;50.978;7.034;2022-12-07T01:14:29;85.35;;;50.63;;
31596;SDS011;18201;50.978;7.034;2022-12-07T01:14:59;91.43;;;51.63;;
31596;SDS011;18201;50.978;7.034;2022-12-07T01:15:30;80.68;;;49.13;;
31596;SDS011;18201;50.978;7.034;2022-12-07T01:16:03;81.35;;;49.13;;
31596;SDS011;18201;50.978;7.034;2022-12-07T01:16:35;90.28;;;50.67;;
31596;SDS011;18201;50.978;7.034;2022-12-07T01:17:06;89.78;;;51.72;;
31596;SDS011;18201;50.978;7.034;2022-12-07T01:17:38;86.07;;;51.30;;
31596;SDS011;18201;50.978;7.034;2022-12-07T01:18:09;92.22;;;51.50;;
31596;SDS011;18201;50.978;7.034;2022-12-07T01:18:40;87.97;;;52.28;;
31596;SDS011;18201;50.978;7.034;2022-12-07T01:19:12;90.32;;;52.08;;
31596;SDS011;18201;50.978;7.034;2022-12-07T01:19:43;85.07;;;51.08;;
31596;SDS011;18201;50.978;7.034;2022-12-07T01:20:14;86.18;;;50.50;;
31596;SDS011;18201;50.978;7.034;2022-12-07T01:20:56;76.72;;;47.45;;
31596;SDS011;18201;50.978;7.034;2022-12-07T01:21:28;77.22;;;47.20;;
31596;SDS011;18201;50.978;7.034;2022-12-07T01:22:04;77.68;;;48.38;;
31596;SDS011;18201;50.978;7.034;2022-12-07T01:22:36;83.28;;;49.20;;
31596;SDS011;18201;50.978;7.034;2022-12-07T01:23:07;84.10;;;50.03;;
31596;SDS011;18201;50.978;7.034;2022-12-07T01:23:38;91.63;;;52.78;;
31596;SDS011;18201;50.978;7.034;2022-12-07T01:24:11;87.00;;;50.10;;
31596;SDS011;18201;50.978;7.034;2022-12-07T01:24:42;80.40;;;49.70;;
31596;SDS011;18201;50.978;7.034;2022-12-07T01:25:14;79.70;;;48.83;;
31596;SDS011;18201;50.978;7.034;2022-12-07T01:25:50;89.68;;;50.95;;
31596;SDS011;18201;50.978;7.034;2022-12-07T01:26:25;89.57;;;52.60;;
31596;SDS011;18201;50.978;7.034;2022-12-07T01:26:56;90.47;;;51.67;;
31596;SDS011;18201;50.978;7.034;2022-12-07T01:27:28;102.47;;;53.67;;
31596;SDS011;18201;50.978;7.034;2022-12-07T01:27:59;99.43;;;55.40;;
31596;SDS011;18201;50.978;7.034;2022-12-07T01:28:30;90.25;;;53.55;;
31596;SDS011;18201;50.978;7.034;2022-12-07T01:29:02;89.13;;;52.15;;
31596;SDS011;18201;50.978;7.034;2022-12-07T01:29:33;93.45;;;52.33;;
31596;SDS011;18201;50.978;7.034;2022-12-07T01:30:05;91.15;;;52.15;;
31596;SDS011;18201;50.978;7.034;2022-12-07T01:30:38;83.32;;;50.88;;
31596;SDS011;18201;50.978;7.034;2022-12-07T01:31:10;80.70;;;48.88;;
31596;SDS011;18201;50.978;7.034;2022-12-07T01:31:44;85.15;;;52.33;;
31596;SDS011;18201;50.978;7.034;2022-12-07T01:32:19;80.57;;;50.53;;
31596;SDS011;18201;50.978;7.034;2022-12-07T01:32:50;88.30;;;51.38;;
31596;SDS011;18201;50.978;7.034;2022-12-07T01:33:21;87.43;;;50.10;;
31596;SDS011;18201;50.978;7.034;2022-12-07T01:33:53;82.57;;;50.60;;
31596;SDS011;18201;50.978;7.034;2022-12-07T01:34:25;90.20;;;50.85;;
31596;SDS011;18201;50.978;7.034;2022-12-07T01:34:56;97.18;;;54.35;;
31596;SDS011;18201;50.978;7.034;2022-12-07T01:35:27;98.63;;;54.00;;
31596;SDS011;18201;50.978;7.034;2022-12-07T01:36:02;92.85;;;53.65;;
31596;SDS011;18201;50.978;7.034;2022-12-07T01:36:35;92.93;;;53.83;;
31596;SDS011;18201;50.978;7.034;2022-12-07T01:37:06;88.10;;;53.22;;
31596;SDS011;18201;50.978;7.034;2022-12-07T01:37:38;97.22;;;53.67;;
31596;SDS011;18201;50.978;7.034;2022-12-07T01:38:09;86.20;;;51.17;;
31596;SDS011;18201;50.978;7.034;2022-12-07T01:38:40;87.78;;;52.92;;
31596;SDS011;18201;50.978;7.034;2022-12-07T01:39:12;83.95;;;52.30;;
31596;SDS011;18201;50.978;7.034;2022-12-07T01:39:43;91.55;;;52.38;;
31596;SDS011;18201;50.978;7.034;2022-12-07T01:40:17;86.32;;;51.58;;
31596;SDS011;18201;50.978;7.034;2022-12-07T01:40:53;84.88;;;52.28;;
31596;SDS011;18201;50.978;7.034;2022-12-07T01:41:25;94.88;;;53.10;;
31596;SDS011;18201;50.978;7.034;2022-12-07T01:41:59;88.63;;;52.05;;
31596;SDS011;18201;50.978;7.034;2022-12-07T01:42:30;80.80;;;49.85;;
31596;SDS011;18201;50.978;7.034;2022-12-07T01:43:01;86.80;;;52.17;;
31596;SDS011;18201;50.978;7.034;2022-12-07T01:43:33;97.88;;;55.97;;
31596;SDS011;18201;50.978;7.034;2022-12-07T01:44:19;94.68;;;54.90;;
31596;SDS011;18201;50.978;7.034;2022-12-07T01:46:15;85.40;;;48.80;;
31596;SDS011;18201;50.978;7.034;2022-12-07T01:46:46;90.57;;;52.65;;
31596;SDS011;18201;50.978;7.034;2022-12-07T01:47:19;85.45;;;50.40;;
31596;SDS011;18201;50.978;7.034;2022-12-07T01:47:51;92.57;;;53.40;;
31596;SDS011;18201;50.978;7.034;2022-12-07T01:48:26;90.43;;;53.33;;
31596;SDS011;18201;50.978;7.034;2022-12-07T01:49:01;98.60;;;52.65;;
31596;SDS011;18201;50.978;7.034;2022-12-07T01:49:33;97.25;;;54.10;;
31596;SDS011;18201;50.978;7.034;2022-12-07T01:50:07;96.97;;;54.65;;
31596;SDS011;18201;50.978;7.034;2022-12-07T01:50:39;87.15;;;51.25;;
31596;SDS011;18201;50.978;7.034;2022-12-07T01:51:13;90.82;;;50.67;;
31596;SDS011;18201;50.978;7.034;2022-12-07T01:51:44;88.75;;;53.05;;
31596;SDS011;18201;50.978;7.034;2022-12-07T01:52:17;95.25;;;54.67;;
31596;SDS011;18201;50.978;7.034;2022-12-07T01:52:52;90.13;;;52.53;;
31596;SDS011;18201;50.978;7.034;2022-12-07T01:53:26;85.65;;;52.95;;
31596;SDS011;18201;50.978;7.034;2022-12-07T01:53:59;90.93;;;52.55;;
31596;SDS011;18201;50.978;7.034;2022-12-07T01:54:32;90.93;;;53.17;;
31596;SDS011;18201;50.978;7.034;2022-12-07T01:55:06;98.30;;;54.45;;
31596;SDS011;18201;50.978;7.034;2022-12-07T01:55:43;95.43;;;54.78;;
31596;SDS011;18201;50.978;7.034;2022-12-07T01:56:18;86.65;;;51.25;;
31596;SDS011;18201;50.978;7.034;2022-12-07T01:56:53;88.35;;;51.28;;
31596;SDS011;18201;50.978;7.034;2022-12-07T01:57:26;85.30;;;49.80;;
31596;SDS011;18201;50.978;7.034;2022-12-07T01:58:00;81.68;;;50.95;;
31596;SDS011;18201;50.978;7.034;2022-12-07T01:58:31;79.40;;;49.08;;
31596;SDS011;18201;50.978;7.034;2022-12-07T01:59:02;101.53;;;53.55;;
31596;SDS011;18201;50.978;7.034;2022-12-07T01:59:34;90.70;;;54.35;;
31596;SDS011;18201;50.978;7.034;2022-12-07T02:00:06;90.47;;;53.55;;
31596;SDS011;18201;50.978;7.034;2022-12-07T02:00:38;91.95;;;55.33;;
31596;SDS011;18201;50.978;7.034;2022-12-07T02:01:11;92.22;;;52.60;;
31596;SDS011;18201;50.978;7.034;2022-12-07T02:01:43;96.85;;;54.97;;
31596;SDS011;18201;50.978;7.034;2022-12-07T02:02:17;97.85;;;55.47;;
31596;SDS011;18201;50.978;7.034;2022-12-07T02:02:52;88.25;;;52.88;;
31596;SDS011;18201;50.978;7.034;2022-12-07T02:03:27;87.78;;;53.70;;
31596;SDS011;18201;50.978;7.034;2022-12-07T02:04:02;98.28;;;54.30;;
31596;SDS011;18201;50.978;7.034;2022-12-07T02:04:35;101.40;;;56.05;;
31596;SDS011;18201;50.978;7.034;2022-12-07T02:05:06;99.93;;;54.97;;
31596;SDS011;18201;50.978;7.034;2022-12-07T02:05:38;107.85;;;57.95;;
31596;SDS011;18201;50.978;7.034;2022-12-07T02:06:14;99.25;;;56.22;;
31596;SDS011;18201;50.978;7.034;2022-12-07T02:06:49;106.47;;;57.40;;
31596;SDS011;18201;50.978;7.034;2022-12-07T02:07:22;102.95;;;57.00;;
31596;SDS011;18201;50.978;7.034;2022-12-07T02:07:55;108.50;;;59.03;;
31596;SDS011;18201;50.978;7.034;2022-12-07T02:08:26;112.90;;;60.30;;
31596;SDS011;18201;50.978;7.034;2022-12-07T02:08:58;101.72;;;57.92;;
31596;SDS011;18201;50.978;7.034;2022-12-07T02:09:29;101.65;;;57.58;;
31596;SDS011;18201;50.978;7.034;2022-12-07T02:10:11;104.47;;;59.25;;
31596;SDS011;18201;50.978;7.034;2022-12-07T02:10:46;107.82;;;57.08;;
31596;SDS011;18201;50.978;7.034;2022-12-07T02:11:16;105.60;;;58.55;;
31596;SDS011;18201;50.978;7.034;2022-12-07T02:11:48;108.25;;;56.60;;
31596;SDS011;18201;50.978;7.034;2022-12-07T02:12:20;111.00;;;59.33;;
31596;SDS011;18201;50.978;7.034;2022-12-07T02:12:54;102.70;;;58.03;;
31596;SDS011;18201;50.978;7.034;2022-12-07T02:13:28;98.28;;;57.53;;
31596;SDS011;18201;50.978;7.034;2022-12-07T02:14:02;116.60;;;61.50;;
31596;SDS011;18201;50.978;7.034;2022-12-07T02:14:33;110.72;;;58.50;;
31596;SDS011;18201;50.978;7.034;2022-12-07T02:15:04;109.53;;;60.63;;
31596;SDS011;18201;50.978;7.034;2022-12-07T02:15:44;116.40;;;60.65;;
31596;SDS011;18201;50.978;7.034;2022-12-07T02:16:28;117.30;;;59.40;;
31596;SDS011;18201;50.978;7.034;2022-12-07T02:17:07;111.97;;;59.10;;
31596;SDS011;18201;50.978;7.034;2022-12-07T02:17:45;114.07;;;59.08;;
31596;SDS011;18201;50.978;7.034;2022-12-07T02:18:23;102.13;;;58.25;;
31596;SDS011;18201;50.978;7.034;2022-12-07T02:20:11;103.38;;;55.55;;
31596;SDS011;18201;50.978;7.034;2022-12-07T02:20:51;98.25;;;55.35;;
31596;SDS011;18201;50.978;7.034;2022-12-07T02:21:29;98.22;;;55.78;;
31596;SDS011;18201;50.978;7.034;2022-12-07T02:22:11;97.72;;;56.15;;
31596;SDS011;18201;50.978;7.034;2022-12-07T02:23:04;107.45;;;56.60;;
31596;SDS011;18201;50.978;7.034;2022-12-07T02:24:14;91.75;;;51.80;;
31596;SDS011;18201;50.978;7.034;2022-12-07T02:24:55;104.75;;;54.72;;
31596;SDS011;18201;50.978;7.034;2022-12-07T02:25:48;92.28;;;53.28;;
31596;SDS011;18201;50.978;7.034;2022-12-07T02:27:50;96.60;;;52.25;;
31596;SDS011;18201;50.978;7.034;2022-12-07T02:28:27;113.30;;;56.97;;
31596;SDS011;18201;50.978;7.034;2022-12-07T02:29:08;110.93;;;57.88;;
31596;SDS011;18201;50.978;7.034;2022-12-07T02:29:45;107.78;;;58.10;;
31596;SDS011;18201;50.978;7.034;2022-12-07T02:30:20;110.15;;;57.00;;
31596;SDS011;18201;50.978;7.034;2022-12-07T02:30:54;113.80;;;59.15;;
31596;SDS011;18201;50.978;7.034;2022-12-07T02:31:28;117.47;;;61.13;;
31596;SDS011;18201;50.978;7.034;2022-12-07T02:32:03;113.45;;;61.00;;
31596;SDS011;18201;50.978;7.034;2022-12-07T02:32:43;112.97;;;59.10;;
31596;SDS011;18201;50.978;7.034;2022-12-07T02:33:19;113.05;;;59.00;;
31596;SDS011;18201;50.978;7.034;2022-12-07T02:33:57;102.55;;;56.33;;
31596;SDS011;18201;50.978;7.034;2022-12-07T02:34:39;116.55;;;58.58;;
31596;SDS011;18201;50.978;7.034;2022-12-07T02:35:18;120.38;;;59.70;;
31596;SDS011;18201;50.978;7.034;2022-12-07T02:35:53;115.05;;;60.22;;
31596;SDS011;18201;50.978;7.034;2022-12-07T02:36:30;116.38;;;58.22;;
31596;SDS011;18201;50.978;7.034;2022-12-07T02:37:08;119.15;;;59.95;;
31596;SDS011;18201;50.978;7.034;2022-12-07T02:37:49;102.00;;;56.72;;
31596;SDS011;18201;50.978;7.034;2022-12-07T02:38:29;101.53;;;55.40;;
31596;SDS011;18201;50.978;7.034;2022-12-07T02:39:08;117.75;;;57.50;;
31596;SDS011;18201;50.978;7.034;2022-12-07T02:39:46;109.13;;;57.00;;
31596;SDS011;18201;50.978;7.034;2022-12-07T02:40:22;111.05;;;57.47;;
31596;SDS011;18201;50.978;7.034;2022-12-07T02:41:00;107.45;;;56.97;;
31596;SDS011;18201;50.978;7.034;2022-12-07T02:41:37;102.45;;;55.22;;
31596;SDS011;18201;50.978;7.034;2022-12-07T02:42:14;97.63;;;55.28;;
31596;SDS011;18201;50.978;7.034;2022-12-07T02:42:50;95.82;;;52.90;;
31596;SDS011;18201;50.978;7.034;2022-12-07T02:43:25;102.20;;;56.13;;
31596;SDS011;18201;50.978;7.034;2022-12-07T02:44:00;104.68;;;54.67;;
31596;SDS011;18201;50.978;7.034;2022-12-07T02:44:36;106.18;;;56.55;;
31596;SDS011;18201;50.978;7.034;2022-12-07T02:45:07;99.80;;;56.80;;
31596;SDS011;18201;50.978;7.034;2022-12-07T02:45:41;114.93;;;58.25;;
31596;SDS011;18201;50.978;7.034;2022-12-07T02:46:16;113.40;;;56.85;;
31596;SDS011;18201;50.978;7.034;2022-12-07T02:46:52;98.15;;;57.20;;
31596;SDS011;18201;50.978;7.034;2022-12-07T02:47:25;101.97;;;55.00;;
31596;SDS011;18201;50.978;7.034;2022-12-07T02:47:59;100.45;;;57.80;;
31596;SDS011;18201;50.978;7.034;2022-12-07T02:48:31;106.35;;;57.03;;
31596;SDS011;18201;50.978;7.034;2022-12-07T02:49:05;104.38;;;56.47;;
31596;SDS011;18201;50.978;7.034;2022-12-07T02:49:38;103.65;;;56.08;;
31596;SDS011;18201;50.978;7.034;2022-12-07T02:50:10;97.13;;;53.65;;
31596;SDS011;18201;50.978;7.034;2022-12-07T02:50:44;96.30;;;54.85;;
31596;SDS011;18201;50.978;7.034;2022-12-07T02:51:17;105.57;;;56.97;;
31596;SDS011;18201;50.978;7.034;2022-12-07T02:51:48;95.85;;;55.58;;
31596;SDS011;18201;50.978;7.034;2022-12-07T02:52:21;94.70;;;52.97;;
31596;SDS011;18201;50.978;7.034;2022-12-07T02:52:52;96.60;;;56.13;;
31596;SDS011;18201;50.978;7.034;2022-12-07T02:53:29;95.07;;;55.45;;
31596;SDS011;18201;50.978;7.034;2022-12-07T02:54:02;93.70;;;54.97;;
31596;SDS011;18201;50.978;7.034;2022-12-07T02:54:39;90.82;;;53.97;;
31596;SDS011;18201;50.978;7.034;2022-12-07T02:55:11;92.43;;;54.70;;
31596;SDS011;18201;50.978;7.034;2022-12-07T02:55:45;110.70;;;56.08;;
31596;SDS011;18201;50.978;7.034;2022-12-07T02:56:20;96.85;;;57.25;;
31596;SDS011;18201;50.978;7.034;2022-12-07T02:57:42;98.65;;;53.60;;
31596;SDS011;18201;50.978;7.034;2022-12-07T02:58:23;102.38;;;53.58;;
31596;SDS011;18201;50.978;7.034;2022-12-07T02:59:09;95.80;;;54.95;;
31596;SDS011;18201;50.978;7.034;2022-12-07T02:59:50;97.97;;;54.03;;
31596;SDS011;18201;50.978;7.034;2022-12-07T03:00:32;100.63;;;54.17;;
31596;SDS011;18201;50.978;7.034;2022-12-07T03:01:11;102.45;;;57.20;;
31596;SDS011;18201;50.978;7.034;2022-12-07T03:01:54;111.30;;;58.92;;
31596;SDS011;18201;50.978;7.034;2022-12-07T03:02:42;111.10;;;56.58;;
31596;SDS011;18201;50.978;7.034;2022-12-07T03:03:22;95.85;;;56.08;;
31596;SDS011;18201;50.978;7.034;2022-12-07T03:03:56;94.93;;;54.67;;
31596;SDS011;18201;50.978;7.034;2022-12-07T03:04:39;89.38;;;55.92;;
31596;SDS011;18201;50.978;7.034;2022-12-07T03:05:21;96.45;;;53.97;;
31596;SDS011;18201;50.978;7.034;2022-12-07T03:06:12;98.43;;;57.90;;
31596;SDS011;18201;50.978;7.034;2022-12-07T03:07:28;96.25;;;51.60;;
31596;SDS011;18201;50.978;7.034;2022-12-07T03:08:04;94.40;;;56.15;;
31596;SDS011;18201;50.978;7.034;2022-12-07T03:08:45;87.20;;;53.22;;
31596;SDS011;18201;50.978;7.034;2022-12-07T03:09:21;101.30;;;55.08;;
31596;SDS011;18201;50.978;7.034;2022-12-07T03:10:00;101.30;;;56.15;;
31596;SDS011;18201;50.978;7.034;2022-12-07T03:10:39;95.00;;;55.10;;
31596;SDS011;18201;50.978;7.034;2022-12-07T03:11:21;91.43;;;54.75;;
31596;SDS011;18201;50.978;7.034;2022-12-07T03:11:59;100.18;;;56.80;;
31596;SDS011;18201;50.978;7.034;2022-12-07T03:13:15;97.18;;;54.20;;
31596;SDS011;18201;50.978;7.034;2022-12-07T03:13:54;109.10;;;54.97;;
31596;SDS011;18201;50.978;7.034;2022-12-07T03:14:34;96.57;;;57.05;;
31596;SDS011;18201;50.978;7.034;2022-12-07T03:15:11;105.97;;;58.58;;
31596;SDS011;18201;50.978;7.034;2022-12-07T03:15:48;105.00;;;58.72;;
31596;SDS011;18201;50.978;7.034;2022-12-07T03:16:25;98.57;;;57.70;;
31596;SDS011;18201;50.978;7.034;2022-12-07T03:17:01;95.22;;;55.58;;
31596;SDS011;18201;50.978;7.034;2022-12-07T03:17:38;94.80;;;56.90;;
31596;SDS011;18201;50.978;7.034;2022-12-07T03:18:12;105.45;;;59.95;;
31596;SDS011;18201;50.978;7.034;2022-12-07T03:18:48;108.75;;;57.72;;
31596;SDS011;18201;50.978;7.034;2022-12-07T03:19:22;112.15;;;61.55;;
31596;SDS011;18201;50.978;7.034;2022-12-07T03:19:58;104.95;;;61.03;;
31596;SDS011;18201;50.978;7.034;2022-12-07T03:20:32;110.22;;;57.95;;
31596;SDS011;18201;50.978;7.034;2022-12-07T03:21:09;103.88;;;58.60;;
31596;SDS011;18201;50.978;7.034;2022-12-07T03:21:44;112.82;;;61.35;;
31596;SDS011;18201;50.978;7.034;2022-12-07T03:22:17;112.30;;;60.85;;
31596;SDS011;18201;50.978;7.034;2022-12-07T03:22:50;116.78;;;62.67;;
31596;SDS011;18201;50.978;7.034;2022-12-07T03:23:23;105.78;;;59.25;;